createdAt,value
2018-12-23T00:00:11.337Z,13.90
2018-12-23T00:02:41.826Z,14.10
2018-12-23T00:05:11.619Z,14.50
2018-12-23T00:07:40.304Z,14.20
2018-12-23T00:10:08.943Z,14.10
2018-12-23T00:12:37.329Z,14.10
2018-12-23T00:15:07.270Z,14.10
2018-12-23T00:17:36.578Z,14.00
2018-12-23T00:20:07.371Z,14.10
2018-12-23T00:22:35.875Z,14.00
2018-12-23T00:25:04.452Z,14.10
2018-12-23T00:27:32.881Z,14.00
2018-12-23T00:30:01.225Z,14.00
2018-12-23T00:32:29.890Z,14.20
2018-12-23T00:34:58.274Z,14.10
2018-12-23T00:37:26.645Z,14.20
2018-12-23T00:39:56.035Z,14.20
2018-12-23T00:42:24.431Z,14.00
2018-12-23T00:44:53.213Z,14.10
2018-12-23T00:47:21.966Z,13.90
2018-12-23T00:49:50.439Z,14.10
2018-12-23T00:52:19.128Z,14.10
2018-12-23T00:54:47.619Z,14.20
2018-12-23T00:57:19.367Z,14.10
2018-12-23T00:59:48.075Z,14.10
2018-12-23T01:02:16.778Z,14.20
2018-12-23T01:04:45.256Z,14.30
2018-12-23T01:07:15.192Z,14.40
2018-12-23T01:09:43.627Z,14.30
2018-12-23T01:12:13.032Z,14.20
2018-12-23T01:14:42.048Z,14.20
2018-12-23T01:17:10.512Z,14.20
2018-12-23T01:19:41.817Z,14.20
2018-12-23T01:22:10.259Z,14.20
2018-12-23T01:24:39.611Z,14.30
2018-12-23T01:27:08.048Z,14.50
2018-12-23T01:29:36.452Z,14.50
2018-12-23T01:32:04.955Z,14.30
2018-12-23T01:34:37.186Z,14.40
2018-12-23T01:37:05.211Z,14.50
2018-12-23T01:39:33.712Z,14.40
2018-12-23T01:42:02.151Z,14.70
2018-12-23T01:44:31.330Z,14.80
2018-12-23T01:47:01.454Z,14.90
2018-12-23T01:49:30.387Z,15.00
2018-12-23T01:51:59.093Z,14.60
2018-12-23T01:54:27.556Z,14.70
2018-12-23T01:56:56.008Z,14.40
2018-12-23T01:59:25.532Z,14.30
2018-12-23T02:01:53.991Z,14.50
2018-12-23T02:04:22.813Z,14.60
2018-12-23T02:06:51.259Z,14.50
2018-12-23T02:09:20.155Z,14.40
2018-12-23T02:11:48.578Z,14.30
2018-12-23T02:14:18.073Z,14.40
2018-12-23T02:16:47.587Z,15.00
2018-12-23T02:19:16.062Z,14.60
2018-12-23T02:21:44.560Z,14.70
2018-12-23T02:24:13.958Z,14.90
2018-12-23T02:26:42.376Z,14.80
2018-12-23T02:29:10.807Z,14.80
2018-12-23T02:31:39.275Z,14.60
2018-12-23T02:34:07.750Z,14.90
2018-12-23T02:36:36.192Z,14.90
2018-12-23T02:39:07.036Z,14.80
2018-12-23T02:41:35.492Z,14.90
2018-12-23T02:44:04.071Z,14.80
2018-12-23T02:46:32.858Z,15.10
2018-12-23T02:49:01.589Z,15.20
2018-12-23T02:51:30.123Z,15.10
2018-12-23T02:53:58.572Z,15.00
2018-12-23T02:56:27.098Z,14.70
2018-12-23T02:58:55.532Z,14.40
2018-12-23T03:01:24.018Z,14.20
2018-12-23T03:03:52.512Z,14.20
2018-12-23T03:06:21.811Z,14.30
2018-12-23T03:08:50.247Z,14.20
2018-12-23T03:11:20.696Z,14.10
2018-12-23T03:13:49.117Z,14.30
2018-12-23T03:16:18.393Z,14.30
2018-12-23T03:18:46.857Z,14.10
2018-12-23T03:21:15.483Z,14.20
2018-12-23T03:23:44.356Z,14.10
2018-12-23T03:26:12.771Z,14.10
2018-12-23T03:28:41.217Z,14.30
2018-12-23T03:31:09.688Z,14.20
2018-12-23T03:33:38.125Z,14.20
2018-12-23T03:36:14.731Z,14.20
2018-12-23T03:38:37.254Z,14.20
2018-12-23T03:41:05.753Z,14.30
2018-12-23T03:43:34.463Z,14.60
2018-12-23T03:46:02.932Z,14.50
2018-12-23T03:48:31.343Z,14.60
2018-12-23T03:50:59.754Z,14.50
2018-12-23T03:53:28.179Z,14.70
2018-12-23T03:55:58.286Z,14.70
2018-12-23T03:58:28.080Z,14.70
2018-12-23T04:00:58.493Z,14.70
2018-12-23T04:03:27.479Z,14.50
2018-12-23T04:05:55.937Z,14.60
2018-12-23T04:08:24.737Z,14.50
2018-12-23T04:10:53.263Z,14.70
2018-12-23T04:13:21.679Z,14.80
2018-12-23T04:15:50.147Z,14.60
2018-12-23T04:18:18.502Z,14.40
2018-12-23T04:20:46.900Z,14.60
2018-12-23T04:23:15.318Z,14.50
2018-12-23T04:25:45.247Z,14.40
2018-12-23T04:28:13.758Z,14.50
2018-12-23T04:30:42.203Z,14.20
2018-12-23T04:33:10.561Z,14.00
2018-12-23T04:35:39.015Z,14.10
2018-12-23T04:38:07.463Z,14.30
2018-12-23T04:40:36.221Z,14.30
2018-12-23T04:43:04.671Z,14.00
2018-12-23T04:45:33.096Z,14.10
2018-12-23T04:48:01.567Z,14.30
2018-12-23T04:50:30.004Z,14.30
2018-12-23T04:52:58.417Z,14.60
2018-12-23T04:55:27.124Z,14.70
2018-12-23T04:57:55.590Z,14.90
2018-12-23T05:00:24.057Z,14.90
2018-12-23T05:02:52.449Z,14.60
2018-12-23T05:05:20.809Z,14.30
2018-12-23T05:07:49.227Z,14.20
2018-12-23T05:10:17.705Z,14.20
2018-12-23T05:12:46.107Z,14.10
2018-12-23T05:15:14.928Z,14.10
2018-12-23T05:17:43.836Z,14.20
2018-12-23T05:20:12.191Z,14.20
2018-12-23T05:22:40.599Z,14.10
2018-12-23T05:25:09.360Z,14.00
2018-12-23T05:27:37.746Z,13.80
2018-12-23T05:30:06.323Z,14.00
2018-12-23T05:32:34.735Z,13.90
2018-12-23T05:35:03.248Z,14.00
2018-12-23T05:37:31.647Z,14.60
2018-12-23T05:40:00.042Z,14.20
2018-12-23T05:42:28.633Z,13.60
2018-12-23T05:44:57.091Z,13.30
2018-12-23T05:47:25.507Z,13.20
2018-12-23T05:49:53.979Z,13.20
2018-12-23T05:52:23.831Z,13.70
2018-12-23T05:54:52.306Z,13.50
2018-12-23T05:57:20.964Z,13.50
2018-12-23T05:59:49.412Z,13.40
2018-12-23T06:02:17.730Z,13.50
2018-12-23T06:04:46.020Z,13.40
2018-12-23T06:07:14.379Z,13.50
2018-12-23T06:09:42.786Z,13.60
2018-12-23T06:12:11.215Z,13.60
2018-12-23T06:14:40.197Z,13.60
2018-12-23T06:17:08.496Z,13.80
2018-12-23T06:19:36.781Z,13.90
2018-12-23T06:22:05.636Z,14.10
2018-12-23T06:24:34.017Z,13.90
2018-12-23T06:27:02.328Z,13.80
2018-12-23T06:29:30.597Z,13.80
2018-12-23T06:31:58.897Z,13.70
2018-12-23T06:34:27.357Z,13.60
2018-12-23T06:36:55.806Z,13.80
2018-12-23T06:39:24.919Z,13.80
2018-12-23T06:41:53.342Z,14.30
2018-12-23T06:44:22.213Z,14.50
2018-12-23T06:46:50.584Z,14.50
2018-12-23T06:49:18.894Z,13.90
2018-12-23T06:51:47.287Z,13.80
2018-12-23T06:54:15.711Z,13.70
2018-12-23T06:56:44.152Z,13.90
2018-12-23T06:59:12.560Z,13.90
2018-12-23T07:01:41.503Z,13.80
2018-12-23T07:04:10.227Z,14.00
2018-12-23T07:06:38.610Z,14.40
2018-12-23T07:09:07.393Z,14.60
2018-12-23T07:11:35.871Z,14.50
2018-12-23T07:14:04.291Z,14.10
2018-12-23T07:16:32.668Z,14.00
2018-12-23T07:19:01.123Z,14.10
2018-12-23T07:21:30.627Z,14.20
2018-12-23T07:24:00.488Z,14.40
2018-12-23T07:26:29.278Z,14.50
2018-12-23T07:28:58.675Z,14.30
2018-12-23T07:31:27.175Z,14.20
2018-12-23T07:33:55.609Z,14.20
2018-12-23T07:36:24.069Z,14.50
2018-12-23T07:38:52.562Z,15.00
2018-12-23T07:41:21.056Z,16.40
2018-12-23T07:43:49.500Z,18.60
2018-12-23T07:46:17.956Z,17.90
2018-12-23T07:48:46.350Z,22.70
2018-12-23T07:51:14.710Z,24.90
2018-12-23T07:53:43.066Z,24.80
2018-12-23T07:56:11.747Z,25.40
2018-12-23T07:58:40.128Z,25.40
2018-12-23T08:01:13.864Z,25.80
2018-12-23T08:03:42.354Z,25.60
2018-12-23T08:06:11.451Z,26.00
2018-12-23T08:08:39.913Z,26.30
2018-12-23T08:11:08.336Z,26.40
2018-12-23T08:13:37.503Z,27.10
2018-12-23T08:16:11.227Z,23.90
2018-12-23T08:18:39.884Z,22.40
2018-12-23T08:21:08.948Z,21.80
2018-12-23T08:23:37.362Z,20.60
2018-12-23T08:26:06.135Z,20.50
2018-12-23T08:28:34.632Z,23.20
2018-12-23T08:31:03.046Z,24.80
2018-12-23T08:33:31.440Z,22.80
2018-12-23T08:35:59.869Z,20.90
2018-12-23T08:38:28.523Z,20.60
2018-12-23T08:40:57.263Z,20.10
2018-12-23T08:43:25.724Z,19.70
2018-12-23T08:45:54.121Z,19.00
2018-12-23T08:48:22.458Z,19.00
2018-12-23T08:50:50.880Z,18.80
2018-12-23T08:53:19.343Z,18.80
2018-12-23T08:55:47.848Z,18.60
2018-12-23T08:58:18.283Z,18.40
2018-12-23T09:00:46.753Z,18.70
2018-12-23T09:03:18.808Z,19.40
2018-12-23T09:05:45.776Z,19.20
2018-12-23T09:08:14.222Z,19.50
2018-12-23T09:10:42.652Z,19.50
2018-12-23T09:13:11.124Z,18.50
2018-12-23T09:15:39.703Z,19.20
2018-12-23T09:18:08.519Z,19.60
2018-12-23T09:20:37.045Z,19.60
2018-12-23T09:23:05.788Z,19.80
2018-12-23T09:25:34.220Z,19.80
2018-12-23T09:28:02.963Z,19.90
2018-12-23T09:30:31.463Z,20.00
2018-12-23T09:32:59.888Z,19.70
2018-12-23T09:35:28.311Z,19.10
2018-12-23T09:38:01.473Z,18.30
2018-12-23T09:40:27.198Z,18.90
2018-12-23T09:42:55.619Z,18.60
2018-12-23T09:45:24.329Z,18.50
2018-12-23T09:47:53.081Z,17.80
2018-12-23T09:50:21.514Z,18.60
2018-12-23T09:52:49.935Z,19.10
2018-12-23T09:55:18.436Z,19.60
2018-12-23T09:57:46.893Z,19.50
2018-12-23T10:00:15.637Z,18.90
2018-12-23T10:02:44.051Z,18.50
2018-12-23T10:05:12.523Z,19.50
2018-12-23T10:07:40.940Z,18.80
2018-12-23T10:10:10.655Z,19.00
2018-12-23T10:12:40.145Z,19.50
2018-12-23T10:15:09.309Z,18.60
2018-12-23T10:17:38.332Z,18.80
2018-12-23T10:20:07.711Z,18.70
2018-12-23T10:22:36.372Z,19.20
2018-12-23T10:25:04.862Z,19.40
2018-12-23T10:27:33.835Z,19.30
2018-12-23T10:30:02.332Z,19.10
2018-12-23T10:32:31.255Z,19.70
2018-12-23T10:34:59.687Z,19.70
2018-12-23T10:37:28.089Z,19.70
2018-12-23T10:39:56.508Z,19.40
2018-12-23T10:42:24.933Z,19.70
2018-12-23T10:44:53.458Z,19.50
2018-12-23T10:47:21.914Z,19.40
2018-12-23T10:49:50.564Z,19.30
2018-12-23T10:52:18.984Z,19.50
2018-12-23T10:54:47.545Z,19.90
2018-12-23T10:57:16.027Z,19.90
2018-12-23T10:59:44.388Z,19.40
2018-12-23T11:02:13.840Z,19.40
2018-12-23T11:04:42.557Z,19.80
2018-12-23T11:07:10.880Z,19.10
2018-12-23T11:09:39.462Z,19.60
2018-12-23T11:12:07.864Z,19.90
2018-12-23T11:14:36.876Z,19.90
2018-12-23T11:17:05.332Z,19.80
2018-12-23T11:19:34.296Z,19.60
2018-12-23T11:22:03.178Z,19.60
2018-12-23T11:24:31.601Z,19.70
2018-12-23T11:27:00.095Z,19.30
2018-12-23T11:29:28.584Z,19.80
2018-12-23T11:31:57.003Z,19.80
2018-12-23T11:34:25.751Z,19.60
2018-12-23T11:36:58.190Z,19.50
2018-12-23T11:39:26.554Z,19.80
2018-12-23T11:41:55.004Z,19.70
2018-12-23T11:44:23.508Z,19.50
2018-12-23T11:46:51.921Z,19.30
2018-12-23T11:49:20.341Z,19.60
2018-12-23T11:51:48.835Z,20.00
2018-12-23T11:54:17.281Z,19.80
2018-12-23T11:56:45.747Z,19.80
2018-12-23T11:59:14.213Z,19.60
2018-12-23T12:01:42.646Z,19.90
2018-12-23T12:04:11.174Z,19.80
2018-12-23T12:06:39.890Z,19.70
2018-12-23T12:09:08.448Z,19.60
2018-12-23T12:11:38.094Z,19.70
2018-12-23T12:14:06.556Z,19.90
2018-12-23T12:16:36.008Z,19.90
2018-12-23T12:19:04.448Z,19.80
2018-12-23T12:21:32.912Z,19.90
2018-12-23T12:24:01.394Z,19.50
2018-12-23T12:26:29.952Z,19.60
2018-12-23T12:28:58.431Z,20.00
2018-12-23T12:31:26.913Z,19.80
2018-12-23T12:33:55.338Z,19.80
2018-12-23T12:36:23.806Z,19.50
2018-12-23T12:38:52.516Z,19.50
2018-12-23T12:41:21.076Z,19.60
2018-12-23T12:43:49.571Z,19.80
2018-12-23T12:46:18.773Z,20.20
2018-12-23T12:48:47.204Z,19.80
2018-12-23T12:51:15.701Z,19.30
2018-12-23T12:53:44.171Z,19.30
2018-12-23T12:56:12.627Z,19.30
2018-12-23T12:58:41.042Z,19.10
2018-12-23T13:01:09.532Z,19.10
2018-12-23T13:03:38.356Z,19.30
2018-12-23T13:06:06.859Z,19.50
2018-12-23T13:08:36.252Z,19.60
2018-12-23T13:11:06.095Z,19.30
2018-12-23T13:13:34.541Z,19.00
2018-12-23T13:16:03.220Z,19.00
2018-12-23T13:18:31.744Z,19.10
2018-12-23T13:21:00.322Z,19.30
2018-12-23T13:23:28.900Z,19.30
2018-12-23T13:25:57.352Z,19.00
2018-12-23T13:28:26.508Z,19.00
2018-12-23T13:30:55.167Z,18.90
2018-12-23T13:33:23.612Z,19.00
2018-12-23T13:35:52.082Z,19.30
2018-12-23T13:38:24.757Z,19.40
2018-12-23T13:41:34.012Z,19.30
2018-12-23T13:44:15.337Z,19.00
2018-12-23T13:48:00.288Z,19.00
2018-12-23T13:50:49.449Z,18.60
2018-12-23T13:53:34.977Z,18.90
2018-12-23T13:56:49.142Z,19.10
2018-12-23T14:01:34.714Z,18.60
2018-12-23T14:06:17.870Z,19.10
2018-12-23T14:09:18.076Z,19.10
2018-12-23T14:11:55.378Z,18.90
2018-12-23T14:14:24.135Z,18.70
2018-12-23T14:16:52.808Z,19.00
2018-12-23T14:19:21.600Z,18.70
2018-12-23T14:21:50.047Z,19.10
2018-12-23T14:24:18.584Z,19.10
2018-12-23T14:26:47.376Z,18.60
2018-12-23T14:29:15.944Z,18.40
2018-12-23T14:31:44.590Z,18.70
2018-12-23T14:34:13.919Z,18.50
2018-12-23T14:36:42.741Z,18.30
2018-12-23T14:39:11.102Z,18.20
2018-12-23T14:41:40.539Z,18.10
2018-12-23T14:44:08.925Z,18.60
2018-12-23T14:46:37.292Z,18.70
2018-12-23T14:49:05.756Z,18.60
2018-12-23T14:51:35.334Z,18.30
2018-12-23T14:54:03.786Z,18.20
2018-12-23T14:56:32.267Z,18.20
2018-12-23T14:59:00.867Z,18.40
2018-12-23T15:01:29.341Z,18.30
2018-12-23T15:03:57.836Z,18.00
2018-12-23T15:06:26.189Z,18.30
2018-12-23T15:08:54.530Z,18.10
2018-12-23T15:11:22.859Z,18.00
2018-12-23T15:13:51.186Z,18.20
2018-12-23T15:16:20.101Z,18.10
2018-12-23T15:18:48.940Z,18.00
2018-12-23T15:21:17.739Z,17.90
2018-12-23T15:23:46.175Z,17.90
2018-12-23T15:26:15.598Z,17.80
2018-12-23T15:28:44.090Z,17.80
2018-12-23T15:31:12.560Z,17.80
2018-12-23T15:33:40.996Z,17.70
2018-12-23T15:36:09.928Z,17.80
2018-12-23T15:38:38.317Z,17.80
2018-12-23T15:41:06.776Z,17.80
2018-12-23T15:43:35.117Z,17.70
2018-12-23T15:46:03.717Z,17.60
2018-12-23T15:48:32.148Z,17.60
2018-12-23T15:51:00.548Z,17.60
2018-12-23T15:53:29.074Z,17.80
2018-12-23T15:55:57.512Z,17.80
2018-12-23T15:58:25.940Z,17.80
2018-12-23T16:00:54.239Z,17.80
2018-12-23T16:03:22.624Z,17.80
2018-12-23T16:05:51.067Z,17.90
2018-12-23T16:08:20.879Z,17.80
2018-12-23T16:10:49.250Z,17.90
2018-12-23T16:13:17.704Z,17.70
2018-12-23T16:15:46.385Z,17.30
2018-12-23T16:18:17.753Z,17.50
2018-12-23T16:20:46.557Z,17.80
2018-12-23T16:23:16.724Z,17.60
2018-12-23T16:25:45.187Z,17.30
2018-12-23T16:28:13.685Z,17.20
2018-12-23T16:30:42.625Z,17.10
2018-12-23T16:33:14.127Z,17.00
2018-12-23T16:35:42.611Z,17.20
2018-12-23T16:38:15.693Z,17.00
2018-12-23T16:40:45.648Z,17.00
2018-12-23T16:43:14.092Z,17.10
2018-12-23T16:45:42.573Z,17.00
2018-12-23T16:48:11.112Z,17.10
2018-12-23T16:50:39.715Z,17.00
2018-12-23T16:53:09.226Z,17.00
2018-12-23T16:55:38.059Z,17.40
2018-12-23T16:58:06.512Z,17.80
2018-12-23T17:00:34.976Z,17.60
2018-12-23T17:03:04.865Z,17.90
2018-12-23T17:05:33.308Z,17.90
2018-12-23T17:08:01.691Z,17.80
2018-12-23T17:10:30.122Z,17.80
2018-12-23T17:12:58.591Z,17.80
2018-12-23T17:15:27.120Z,17.90
2018-12-23T17:17:55.583Z,17.90
2018-12-23T17:20:23.953Z,17.80
2018-12-23T17:22:52.346Z,17.70
2018-12-23T17:25:20.758Z,17.30
2018-12-23T17:27:49.284Z,17.10
2018-12-23T17:30:18.029Z,17.00
2018-12-23T17:32:47.100Z,17.00
2018-12-23T17:35:15.562Z,16.90
2018-12-23T17:37:44.096Z,16.80
2018-12-23T17:40:16.446Z,16.80
2018-12-23T17:42:42.982Z,16.80
2018-12-23T17:45:11.956Z,16.80
2018-12-23T17:47:40.367Z,16.70
2018-12-23T17:50:09.488Z,16.70
2018-12-23T17:52:38.330Z,16.80
2018-12-23T17:55:07.234Z,17.20
2018-12-23T17:57:36.195Z,17.40
2018-12-23T18:00:04.989Z,17.40
2018-12-23T18:02:33.469Z,17.40
2018-12-23T18:05:02.323Z,17.50
2018-12-23T18:07:31.056Z,17.40
2018-12-23T18:09:59.574Z,17.10
2018-12-23T18:12:28.176Z,16.60
2018-12-23T18:14:56.633Z,16.30
2018-12-23T18:17:25.386Z,16.40
2018-12-23T18:19:53.884Z,16.30
2018-12-23T18:22:22.348Z,16.40
2018-12-23T18:24:50.757Z,16.40
2018-12-23T18:27:19.252Z,16.30
2018-12-23T18:29:48.751Z,16.40
2018-12-23T18:32:17.230Z,16.50
2018-12-23T18:34:45.679Z,16.30
2018-12-23T18:37:14.184Z,16.30
2018-12-23T18:39:42.623Z,16.50
2018-12-23T18:42:11.144Z,16.90
2018-12-23T18:44:39.604Z,17.00
2018-12-23T18:47:08.225Z,16.90
2018-12-23T18:49:36.755Z,16.70
2018-12-23T18:52:05.246Z,16.90
2018-12-23T18:54:33.729Z,17.20
2018-12-23T18:57:06.114Z,17.10
2018-12-23T18:59:38.738Z,17.20
2018-12-23T19:02:10.740Z,17.10
2018-12-23T19:04:39.339Z,17.10
2018-12-23T19:07:07.985Z,17.20
2018-12-23T19:09:54.419Z,17.10
2018-12-23T19:14:43.834Z,17.10
2018-12-23T19:17:23.259Z,16.80
2018-12-23T19:24:09.277Z,16.60
2018-12-23T19:27:07.378Z,16.60
2018-12-23T19:29:53.424Z,17.10
2018-12-23T19:32:47.615Z,17.00
2018-12-23T19:35:30.824Z,16.60
2018-12-23T19:41:20.290Z,16.60
2018-12-23T19:44:06.018Z,16.50
2018-12-23T19:48:53.127Z,16.80
2018-12-23T19:53:38.980Z,16.90
2018-12-23T19:56:31.161Z,16.50
2018-12-23T20:00:11.952Z,16.40
2018-12-23T20:02:59.223Z,16.70
2018-12-23T20:09:45.390Z,16.80
2018-12-23T20:13:42.140Z,16.90
2018-12-23T20:18:22.290Z,16.10
2018-12-23T20:21:12.451Z,16.40
2018-12-23T20:23:52.256Z,16.40
2018-12-23T20:27:30.825Z,16.20
2018-12-23T20:30:49.938Z,16.20
2018-12-23T20:34:16.163Z,16.10
2018-12-23T20:37:21.050Z,15.90
2018-12-23T20:40:33.609Z,15.90
2018-12-23T20:43:37.917Z,16.10
2018-12-23T20:46:56.432Z,16.10
2018-12-23T20:50:00.340Z,16.30
2018-12-23T20:53:25.119Z,16.30
2018-12-23T20:56:21.593Z,16.20
2018-12-23T20:59:37.665Z,16.40
2018-12-23T21:02:53.864Z,16.20
2018-12-23T21:05:58.587Z,16.40
2018-12-23T21:09:14.463Z,16.40
2018-12-23T21:12:31.284Z,16.10
2018-12-23T21:15:45.294Z,16.20
2018-12-23T21:18:40.512Z,15.80
2018-12-23T21:21:39.161Z,15.90
2018-12-23T21:24:58.096Z,16.00
2018-12-23T21:27:52.404Z,15.90
2018-12-23T21:31:17.654Z,15.80
2018-12-23T21:34:23.036Z,15.70
2018-12-23T21:37:38.677Z,15.80
2018-12-23T21:40:50.389Z,15.80
2018-12-23T21:43:52.668Z,15.90
2018-12-23T21:47:03.032Z,16.00
2018-12-23T21:50:13.296Z,16.00
2018-12-23T21:53:25.875Z,15.70
2018-12-23T21:56:41.267Z,15.80
2018-12-23T21:59:44.916Z,16.10
2018-12-23T22:02:52.082Z,16.10
2018-12-23T22:06:13.989Z,16.20
2018-12-23T22:09:17.957Z,16.00
2018-12-23T22:12:23.773Z,15.80
2018-12-23T22:14:51.848Z,16.00
2018-12-23T22:17:20.940Z,16.10
2018-12-23T22:19:49.096Z,16.30
2018-12-23T22:22:17.230Z,16.10
2018-12-23T22:24:45.392Z,16.20
2018-12-23T22:27:13.518Z,16.20
2018-12-23T22:29:41.740Z,16.40
2018-12-23T22:32:10.069Z,16.30
2018-12-23T22:34:38.310Z,16.40
2018-12-23T22:37:08.432Z,16.00
2018-12-23T22:39:36.640Z,15.80
2018-12-23T22:42:05.106Z,15.80
2018-12-23T22:44:34.013Z,15.80
2018-12-23T22:47:02.205Z,15.70
2018-12-23T22:49:30.289Z,15.70
2018-12-23T22:51:59.348Z,15.90
2018-12-23T22:54:27.566Z,15.90
2018-12-23T22:56:56.047Z,15.70
2018-12-23T22:59:28.021Z,15.70
2018-12-23T23:01:56.579Z,15.70
2018-12-23T23:04:24.825Z,15.70
2018-12-23T23:06:53.259Z,16.00
2018-12-23T23:09:21.872Z,16.10
2018-12-23T23:11:50.260Z,15.90
2018-12-23T23:14:18.432Z,15.90
2018-12-23T23:16:47.002Z,15.80
2018-12-23T23:19:15.176Z,15.70
2018-12-23T23:21:43.303Z,15.60
2018-12-23T23:24:11.464Z,15.80
2018-12-23T23:26:39.695Z,16.00
2018-12-23T23:29:09.451Z,16.00
2018-12-23T23:31:37.672Z,16.20
2018-12-23T23:34:06.025Z,16.40
2018-12-23T23:36:34.345Z,16.60
2018-12-23T23:39:02.954Z,16.10
2018-12-23T23:41:31.556Z,16.50
2018-12-23T23:44:02.331Z,16.50
2018-12-23T23:46:30.545Z,16.70
2018-12-23T23:48:59.090Z,16.70
2018-12-23T23:51:27.308Z,16.80
2018-12-23T23:53:55.455Z,16.70
2018-12-23T23:56:24.601Z,16.80
2018-12-23T23:58:54.601Z,16.80
